createdAt,value
2018-09-25T00:01:01.252Z,75.09
2018-09-25T00:02:11.431Z,75.57
2018-09-25T00:03:21.008Z,74.9
2018-09-25T00:04:30.859Z,75.28
2018-09-25T00:05:40.709Z,75.19
2018-09-25T00:06:50.844Z,75.19
2018-09-25T00:08:01.020Z,74.9
2018-09-25T00:09:10.895Z,75.47
2018-09-25T00:10:21.228Z,75.76
2018-09-25T00:11:31.877Z,75.85
2018-09-25T00:12:41.732Z,75.47
2018-09-25T00:13:51.915Z,75.95
2018-09-25T00:15:01.780Z,75.76
2018-09-25T00:16:11.637Z,75.38
2018-09-25T00:17:21.494Z,75.57
2018-09-25T00:18:31.072Z,75.38
2018-09-25T00:19:40.925Z,75.19
2018-09-25T00:20:50.782Z,75.19
2018-09-25T00:22:00.356Z,74.9
2018-09-25T00:23:10.216Z,75.09
2018-09-25T00:24:19.517Z,75.19
2018-09-25T00:25:31.703Z,75
2018-09-25T00:26:41.554Z,75.38
2018-09-25T00:27:51.408Z,75
2018-09-25T00:29:00.985Z,74.62
2018-09-25T00:30:10.834Z,74.43
2018-09-25T00:31:20.738Z,74.24
2018-09-25T00:32:30.868Z,74.52
2018-09-25T00:33:40.716Z,74.05
2018-09-25T00:34:50.850Z,73.49
2018-09-25T00:36:00.975Z,73.86
2018-09-25T00:37:11.110Z,73.2
2018-09-25T00:38:20.687Z,73.2
2018-09-25T00:39:30.547Z,73.2
2018-09-25T00:40:40.401Z,73.2
2018-09-25T00:41:50.528Z,73.11
2018-09-25T00:43:00.377Z,72.92
2018-09-25T00:44:10.513Z,73.39
2018-09-25T00:45:20.373Z,72.73
2018-09-25T00:46:30.519Z,73.3
2018-09-25T00:47:40.374Z,73.49
2018-09-25T00:48:50.014Z,72.92
2018-09-25T00:49:59.595Z,73.01
2018-09-25T00:51:09.458Z,73.3
2018-09-25T00:52:19.589Z,73.58
2018-09-25T00:53:29.195Z,73.3
2018-09-25T00:54:39.048Z,73.01
2018-09-25T00:55:48.904Z,73.49
2018-09-25T00:56:58.540Z,73.11
2018-09-25T00:58:08.396Z,73.3
2018-09-25T00:59:18.524Z,73.58
2018-09-25T01:00:28.101Z,73.01
2018-09-25T01:01:37.951Z,73.2
2018-09-25T01:02:48.086Z,73.49
2018-09-25T01:03:58.210Z,73.2
2018-09-25T01:05:08.068Z,73.58
2018-09-25T01:06:17.925Z,73.39
2018-09-25T01:07:27.783Z,72.25
2018-09-25T01:08:37.643Z,72.16
2018-09-25T01:09:47.769Z,71.97
2018-09-25T01:10:57.623Z,71.97
2018-09-25T01:12:07.485Z,72.16
2018-09-25T01:13:17.335Z,72.34
2018-09-25T01:14:27.191Z,71.97
2018-09-25T01:15:36.772Z,72.25
2018-09-25T01:16:46.914Z,72.82
2018-09-25T01:17:56.764Z,73.01
2018-09-25T01:19:07.000Z,73.39
2018-09-25T01:20:17.437Z,73.39
2018-09-25T01:21:27.574Z,73.2
2018-09-25T01:22:37.703Z,73.3
2018-09-25T01:23:47.561Z,73.3
2018-09-25T01:24:57.692Z,73.39
2018-09-25T01:26:07.562Z,73.3
2018-09-25T01:27:17.413Z,73.2
2018-09-25T01:28:27.543Z,72.92
2018-09-25T01:29:37.397Z,73.11
2018-09-25T01:30:47.245Z,73.58
2018-09-25T01:31:57.094Z,73.01
2018-09-25T01:33:06.946Z,73.2
2018-09-25T01:34:17.091Z,73.01
2018-09-25T01:35:27.218Z,73.39
2018-09-25T01:36:37.070Z,73.49
2018-09-25T01:37:47.193Z,73.96
2018-09-25T01:38:57.054Z,73.86
2018-09-25T01:40:06.911Z,73.96
2018-09-25T01:41:17.036Z,73.39
2018-09-25T01:42:27.165Z,73.39
2018-09-25T01:43:37.291Z,73.3
2018-09-25T01:44:47.152Z,73.01
2018-09-25T01:45:57.287Z,73.58
2018-09-25T01:47:07.137Z,73.39
2018-09-25T01:48:17.266Z,73.49
2018-09-25T01:49:26.845Z,73.49
2018-09-25T01:50:36.145Z,73.86
2018-09-25T01:51:45.992Z,74.05
2018-09-25T01:52:56.171Z,73.96
2018-09-25T01:54:06.305Z,73.86
2018-09-25T01:55:16.437Z,74.05
2018-09-25T01:56:26.570Z,73.86
2018-09-25T01:57:36.420Z,74.33
2018-09-25T01:58:46.551Z,74.43
2018-09-25T01:59:56.674Z,74.43
2018-09-25T02:01:06.525Z,74.52
2018-09-25T02:02:16.385Z,74.24
2018-09-25T02:03:26.236Z,74.43
2018-09-25T02:04:36.087Z,73.68
2018-09-25T02:05:46.290Z,73.68
2018-09-25T02:06:56.691Z,73.58
2018-09-25T02:08:06.821Z,73.49
2018-09-25T02:09:16.685Z,73.11
2018-09-25T02:10:26.813Z,73.11
2018-09-25T02:11:36.942Z,73.01
2018-09-25T02:12:47.078Z,73.01
2018-09-25T02:13:56.938Z,73.2
2018-09-25T02:15:07.085Z,73.58
2018-09-25T02:16:17.263Z,73.3
2018-09-25T02:17:26.845Z,73.39
2018-09-25T02:18:36.977Z,74.05
2018-09-25T02:19:46.838Z,73.86
2018-09-25T02:20:56.965Z,74.24
2018-09-25T02:22:06.818Z,73.77
2018-09-25T02:23:16.950Z,74.24
2018-09-25T02:24:27.078Z,74.05
2018-09-25T02:25:36.936Z,74.9
2018-09-25T02:26:47.069Z,75.57
2018-09-25T02:27:56.372Z,75.28
2018-09-25T02:29:06.509Z,75.38
2018-09-25T02:30:16.638Z,75.09
2018-09-25T02:31:26.224Z,75
2018-09-25T02:32:36.359Z,75.19
2018-09-25T02:33:46.561Z,75.38
2018-09-25T02:34:56.692Z,75.47
2018-09-25T02:36:06.841Z,75.47
2018-09-25T02:37:16.701Z,75.47
2018-09-25T02:38:26.836Z,75.85
2018-09-25T02:39:36.962Z,75.66
2018-09-25T02:40:46.824Z,75.95
2018-09-25T02:41:56.697Z,76.42
2018-09-25T02:43:06.554Z,76.14
2018-09-25T02:44:16.413Z,75.85
2018-09-25T02:45:26.272Z,76.04
2018-09-25T02:46:36.123Z,76.23
2018-09-25T02:47:45.981Z,76.42
2018-09-25T02:48:55.295Z,76.14
2018-09-25T02:50:04.602Z,76.51
2018-09-25T02:51:14.737Z,76.51
2018-09-25T02:52:24.594Z,76.14
2018-09-25T02:53:34.729Z,76.51
2018-09-25T02:54:44.863Z,76.61
2018-09-25T02:55:54.987Z,76.99
2018-09-25T02:57:05.167Z,76.89
2018-09-25T02:58:15.024Z,77.37
2018-09-25T02:59:24.872Z,76.99
2018-09-25T03:00:34.474Z,77.37
2018-09-25T03:01:44.333Z,77.37
2018-09-25T03:02:54.198Z,77.37
2018-09-25T03:04:04.337Z,77.27
2018-09-25T03:05:14.471Z,76.61
2018-09-25T03:06:24.335Z,77.37
2018-09-25T03:07:34.462Z,77.56
2018-09-25T03:08:44.314Z,76.89
2018-09-25T03:09:54.172Z,77.27
2018-09-25T03:11:03.748Z,77.46
2018-09-25T03:12:13.600Z,77.56
2018-09-25T03:13:23.179Z,77.56
2018-09-25T03:14:33.079Z,77.56
2018-09-25T03:15:43.209Z,77.46
2018-09-25T03:16:53.064Z,78.13
2018-09-25T03:18:03.191Z,77.84
2018-09-25T03:19:13.197Z,77.75
2018-09-25T03:20:23.681Z,77.75
2018-09-25T03:21:33.891Z,78.03
2018-09-25T03:22:43.465Z,78.03
2018-09-25T03:23:53.758Z,78.13
2018-09-25T03:25:03.903Z,77.94
2018-09-25T03:26:14.042Z,78.03
2018-09-25T03:27:23.901Z,77.84
2018-09-25T03:28:34.026Z,78.13
2018-09-25T03:29:43.601Z,77.84
2018-09-25T03:30:53.178Z,78.03
2018-09-25T03:32:03.373Z,78.03
2018-09-25T03:33:13.239Z,78.22
2018-09-25T03:34:23.363Z,78.31
2018-09-25T03:35:33.213Z,78.31
2018-09-25T03:36:43.340Z,78.31
2018-09-25T03:37:53.252Z,78.59
2018-09-25T03:39:03.101Z,77.94
2018-09-25T03:40:12.966Z,77.75
2018-09-25T03:41:22.819Z,77.56
2018-09-25T03:42:32.396Z,77.65
2018-09-25T03:43:42.529Z,77.37
2018-09-25T03:44:52.660Z,77.37
2018-09-25T03:46:02.789Z,78.13
2018-09-25T03:47:12.925Z,78.03
2018-09-25T03:48:23.058Z,77.84
2018-09-25T03:49:33.011Z,78.69
2018-09-25T03:50:42.876Z,78.69
2018-09-25T03:51:52.471Z,78.59
2018-09-25T03:53:02.331Z,78.69
2018-09-25T03:54:12.461Z,78.5
2018-09-25T03:55:22.418Z,78.5
2018-09-25T03:56:32.280Z,78.69
2018-09-25T03:57:42.406Z,78.5
2018-09-25T03:58:52.534Z,79.26
2018-09-25T04:00:02.397Z,79.45
2018-09-25T04:01:12.080Z,79.17
2018-09-25T04:02:21.935Z,79.17
2018-09-25T04:03:31.829Z,78.88
2018-09-25T04:04:41.960Z,79.55
2018-09-25T04:05:51.554Z,79.55
2018-09-25T04:07:01.242Z,79.55
2018-09-25T04:08:10.821Z,79.93
2018-09-25T04:09:20.676Z,79.74
2018-09-25T04:10:30.807Z,79.93
2018-09-25T04:11:40.385Z,79.64
2018-09-25T04:12:50.236Z,79.83
2018-09-25T04:14:00.371Z,79.26
2018-09-25T04:15:10.234Z,79.83
2018-09-25T04:16:19.809Z,79.55
2018-09-25T04:17:29.659Z,79.45
2018-09-25T04:18:39.850Z,79.64
2018-09-25T04:19:49.979Z,79.64
2018-09-25T04:20:59.562Z,79.17
2018-09-25T04:22:09.412Z,78.31
2018-09-25T04:23:19.271Z,79.07
2018-09-25T04:24:28.625Z,78.31
2018-09-25T04:25:38.754Z,78.69
2018-09-25T04:26:48.896Z,78.22
2018-09-25T04:27:58.757Z,77.46
2018-09-25T04:29:08.624Z,77.08
2018-09-25T04:30:18.758Z,77.56
2018-09-25T04:31:28.902Z,77.46
2018-09-25T04:32:39.036Z,76.8
2018-09-25T04:33:49.171Z,76.7
2018-09-25T04:34:59.335Z,76.51
2018-09-25T04:36:09.249Z,76.84
2018-09-25T04:37:19.582Z,76.8
2018-09-25T04:38:29.497Z,76.89
2018-09-25T04:39:39.354Z,76.93
2018-09-25T04:40:48.941Z,76.23
2018-09-25T04:41:59.131Z,76.42
2018-09-25T04:43:09.272Z,76.27
2018-09-25T04:44:19.437Z,76.23
2018-09-25T04:45:29.297Z,76.27
2018-09-25T04:46:39.435Z,76.36
2018-09-25T04:47:49.345Z,76.08
2018-09-25T04:48:59.533Z,75.79
2018-09-25T04:50:09.119Z,75.6
2018-09-25T04:51:18.707Z,75.7
2018-09-25T04:52:28.832Z,75.04
2018-09-25T04:53:38.735Z,75.51
2018-09-25T04:54:48.856Z,75.04
2018-09-25T04:55:58.999Z,75.13
2018-09-25T04:57:09.298Z,74.66
2018-09-25T04:58:19.374Z,74.09
2018-09-25T04:59:29.561Z,73.8
2018-09-25T05:00:39.422Z,74.09
2018-09-25T05:01:49.007Z,73.99
2018-09-25T05:02:58.854Z,73.61
2018-09-25T05:04:08.985Z,73.71
2018-09-25T05:05:18.888Z,74.09
2018-09-25T05:06:28.471Z,74.56
2018-09-25T05:07:38.771Z,74.47
2018-09-25T05:08:48.623Z,73.8
2018-09-25T05:09:58.476Z,73.8
2018-09-25T05:11:08.615Z,73.9
2018-09-25T05:12:18.675Z,73.99
2018-09-25T05:13:28.807Z,73.9
2018-09-25T05:14:39.064Z,73.9
2018-09-25T05:15:49.527Z,73.9
2018-09-25T05:16:59.436Z,74.37
2018-09-25T05:18:09.544Z,74.37
2018-09-25T05:19:20.253Z,73.9
2018-09-25T05:20:30.385Z,74.85
2018-09-25T05:21:40.257Z,74.37
2018-09-25T05:22:50.158Z,74.47
2018-09-25T05:23:59.738Z,73.9
2018-09-25T05:25:09.322Z,73.9
2018-09-25T05:26:19.175Z,73.71
2018-09-25T05:27:29.309Z,74.09
2018-09-25T05:28:39.789Z,73.8
2018-09-25T05:29:49.921Z,73.99
2018-09-25T05:31:00.058Z,74.28
2018-09-25T05:32:09.637Z,73.71
2018-09-25T05:33:19.768Z,73.61
2018-09-25T05:34:29.953Z,73.9
2018-09-25T05:35:40.082Z,73.9
2018-09-25T05:36:49.657Z,73.99
2018-09-25T05:37:59.511Z,73.94
2018-09-25T05:39:09.646Z,73.99
2018-09-25T05:40:19.825Z,73.75
2018-09-25T05:41:29.948Z,73.52
2018-09-25T05:42:39.812Z,74.13
2018-09-25T05:43:49.945Z,73.94
2018-09-25T05:45:00.069Z,74.03
2018-09-25T05:46:09.972Z,74.6
2018-09-25T05:47:19.277Z,74.13
2018-09-25T05:48:29.340Z,74.6
2018-09-25T05:49:39.216Z,74.22
2018-09-25T05:50:49.344Z,73.94
2018-09-25T05:51:58.980Z,74.13
2018-09-25T05:53:09.138Z,74.13
2018-09-25T05:54:18.993Z,73.94
2018-09-25T05:55:29.221Z,74.79
2018-09-25T05:56:39.570Z,74.6
2018-09-25T05:57:49.421Z,74.69
2018-09-25T05:58:59.549Z,74.51
2018-09-25T06:00:09.128Z,74.13
2018-09-25T06:01:19.262Z,73.94
2018-09-25T06:02:29.120Z,74.51
2018-09-25T06:03:39.025Z,74.6
2018-09-25T06:04:48.884Z,73.94
2018-09-25T06:05:59.010Z,74.41
2018-09-25T06:07:09.142Z,73.94
2018-09-25T06:08:18.446Z,74.79
2018-09-25T06:09:28.704Z,74.6
2018-09-25T06:10:39.057Z,74.79
2018-09-25T06:11:49.192Z,74.32
2018-09-25T06:12:59.041Z,74.22
2018-09-25T06:14:08.894Z,74.79
2018-09-25T06:15:18.570Z,74.6
2018-09-25T06:16:28.698Z,74.6
2018-09-25T06:17:38.560Z,74.51
2018-09-25T06:18:48.568Z,74.88
2018-09-25T06:19:58.255Z,74.79
2018-09-25T06:21:08.161Z,75.17
2018-09-25T06:22:17.751Z,74.69
2018-09-25T06:23:27.613Z,73.75
2018-09-25T06:24:37.479Z,74.41
2018-09-25T06:25:47.334Z,74.41
2018-09-25T06:26:57.467Z,75.07
2018-09-25T06:28:07.318Z,73.94
2018-09-25T06:29:17.171Z,73.94
2018-09-25T06:30:27.311Z,74.03
2018-09-25T06:31:37.163Z,73.27
2018-09-25T06:32:47.348Z,73.65
2018-09-25T06:33:57.198Z,73.79
2018-09-25T06:35:06.779Z,73.41
2018-09-25T06:36:16.634Z,73.69
2018-09-25T06:37:26.799Z,73.03
2018-09-25T06:38:36.814Z,72.84
2018-09-25T06:39:56.761Z,72.93
2018-09-25T06:41:06.670Z,72.74
2018-09-25T06:42:16.784Z,72.93
2018-09-25T06:43:26.826Z,73.12
2018-09-25T06:44:36.730Z,72.27
2018-09-25T06:45:46.612Z,72.45
2018-09-25T06:46:56.749Z,72.45
2018-09-25T06:48:06.986Z,72.08
2018-09-25T06:49:16.837Z,71.98
2018-09-25T06:50:27.012Z,72.08
2018-09-25T06:51:36.872Z,71.41
2018-09-25T06:52:47.008Z,71.36
2018-09-25T06:53:57.216Z,71.17
2018-09-25T06:55:06.574Z,70.88
2018-09-25T06:56:16.500Z,70.69
2018-09-25T06:57:26.631Z,70.78
2018-09-25T06:58:36.492Z,70.78
2018-09-25T06:59:46.352Z,70.98
2018-09-25T07:00:56.369Z,70.12
2018-09-25T07:02:07.113Z,69.65
2018-09-25T07:03:16.690Z,70.31
2018-09-25T07:04:26.820Z,70.21
2018-09-25T07:05:36.674Z,69.4
2018-09-25T07:06:46.801Z,70.54
2018-09-25T07:07:56.743Z,70.06
2018-09-25T07:09:06.879Z,69.4
2018-09-25T07:10:16.864Z,69.02
2018-09-25T07:11:27.137Z,68.83
2018-09-25T07:12:37.266Z,68.64
2018-09-25T07:13:47.173Z,68.54
2018-09-25T07:14:57.306Z,68.92
2018-09-25T07:16:07.159Z,68.39
2018-09-25T07:17:17.298Z,68.77
2018-09-25T07:18:27.433Z,68.67
2018-09-25T07:19:37.290Z,68.48
2018-09-25T07:20:47.426Z,68.96
2018-09-25T07:21:57.279Z,67.91
2018-09-25T07:23:07.133Z,67.91
2018-09-25T07:24:17.000Z,67.44
2018-09-25T07:25:27.195Z,66.77
2018-09-25T07:26:37.329Z,65.73
2018-09-25T07:27:47.186Z,66.3
2018-09-25T07:28:57.311Z,66.11
2018-09-25T07:30:07.453Z,66.52
2018-09-25T07:31:17.593Z,66.14
2018-09-25T07:32:27.451Z,66.33
2018-09-25T07:33:37.308Z,65.86
2018-09-25T07:34:47.438Z,65.95
2018-09-25T07:35:57.565Z,64.81
2018-09-25T07:37:07.751Z,64.81
2018-09-25T07:38:17.887Z,65.57
2018-09-25T07:39:27.519Z,65.47
2018-09-25T07:40:37.552Z,64.81
2018-09-25T07:41:47.682Z,64.65
2018-09-25T07:42:57.318Z,65.32
2018-09-25T07:44:07.462Z,64.27
2018-09-25T07:45:17.591Z,63.6
2018-09-25T07:46:27.455Z,63.51
2018-09-25T07:47:37.594Z,63.42
2018-09-25T07:48:47.497Z,63.79
2018-09-25T07:49:57.351Z,63.51
2018-09-25T07:51:06.931Z,63.51
2018-09-25T07:52:16.517Z,61.32
2018-09-25T07:53:26.418Z,62.56
2018-09-25T07:54:36.051Z,62.65
2018-09-25T07:55:45.739Z,61.83
2018-09-25T07:56:56.016Z,62.49
2018-09-25T07:58:05.882Z,62.69
2018-09-25T07:59:15.745Z,61.45
2018-09-25T08:00:25.883Z,61.74
2018-09-25T08:01:35.756Z,62.78
2018-09-25T08:02:45.615Z,61.55
2018-09-25T08:03:55.472Z,61.55
2018-09-25T08:05:04.779Z,61.45
2018-09-25T08:06:14.693Z,61.93
2018-09-25T08:07:24.826Z,61.77
2018-09-25T08:08:34.685Z,60.69
2018-09-25T08:09:44.544Z,61.16
2018-09-25T08:10:54.397Z,60.5
2018-09-25T08:12:04.544Z,62.02
2018-09-25T08:13:14.407Z,62.78
2018-09-25T08:14:24.537Z,61.93
2018-09-25T08:15:34.440Z,61.64
2018-09-25T08:16:44.330Z,61.74
2018-09-25T08:17:54.248Z,62.02
2018-09-25T08:19:04.114Z,61.16
2018-09-25T08:20:13.975Z,62.49
2018-09-25T08:21:24.114Z,61.45
2018-09-25T08:22:33.699Z,61.55
2018-09-25T08:23:43.623Z,61.64
2018-09-25T08:24:53.482Z,61.64
2018-09-25T08:26:03.061Z,61.45
2018-09-25T08:27:13.190Z,61.35
2018-09-25T08:28:23.053Z,61.55
2018-09-25T08:29:32.733Z,61.45
2018-09-25T08:30:42.741Z,61.74
2018-09-25T08:31:52.604Z,62.59
2018-09-25T08:33:02.461Z,62.4
2018-09-25T08:34:12.342Z,61.74
2018-09-25T08:35:22.257Z,61.93
2018-09-25T08:36:32.120Z,61.83
2018-09-25T08:37:41.978Z,62.21
2018-09-25T08:38:52.474Z,62.21
2018-09-25T08:40:02.179Z,62.21
2018-09-25T08:41:12.044Z,61.74
2018-09-25T08:42:22.176Z,61.83
2018-09-25T08:43:31.764Z,62.24
2018-09-25T08:44:41.619Z,62.4
2018-09-25T08:45:51.556Z,62.4
2018-09-25T08:47:02.126Z,62.91
2018-09-25T08:48:11.720Z,62.34
2018-09-25T08:49:21.883Z,63.01
2018-09-25T08:50:31.741Z,61.86
2018-09-25T08:51:41.874Z,62.24
2018-09-25T08:52:51.778Z,61.86
2018-09-25T08:54:01.634Z,62.81
2018-09-25T08:55:11.771Z,61.96
2018-09-25T08:56:21.901Z,62.72
2018-09-25T08:57:32.048Z,62.81
2018-09-25T08:58:41.918Z,64.05
2018-09-25T08:59:52.053Z,63.57
2018-09-25T09:01:02.456Z,63.1
2018-09-25T09:02:12.471Z,62.15
2018-09-25T09:03:22.329Z,62.72
2018-09-25T09:04:32.460Z,63.01
2018-09-25T09:05:42.042Z,62.81
2018-09-25T09:06:52.182Z,61.96
2018-09-25T09:08:02.325Z,61.48
2018-09-25T09:09:11.967Z,62.91
2018-09-25T09:10:22.113Z,62.08
2018-09-25T09:11:31.696Z,62.62
2018-09-25T09:12:41.556Z,62.46
2018-09-25T09:13:51.413Z,62.27
2018-09-25T09:15:01.275Z,62.75
2018-09-25T09:16:11.405Z,62.94
2018-09-25T09:17:21.266Z,62.75
2018-09-25T09:18:30.863Z,61.9
2018-09-25T09:19:41.219Z,62.37
2018-09-25T09:20:51.824Z,61.7
2018-09-25T09:22:01.679Z,61.13
2018-09-25T09:23:11.554Z,61.61
2018-09-25T09:24:21.144Z,61.8
2018-09-25T09:25:31.006Z,61.13
2018-09-25T09:26:40.868Z,61.22
2018-09-25T09:27:51.803Z,61.51
2018-09-25T09:29:01.387Z,61.7
2018-09-25T09:30:11.531Z,61.42
2018-09-25T09:31:21.388Z,61.61
2018-09-25T09:32:31.588Z,61.61
2018-09-25T09:33:42.346Z,61.7
2018-09-25T09:34:51.663Z,61.7
2018-09-25T09:36:01.525Z,61.8
2018-09-25T09:37:11.107Z,61.9
2018-09-25T09:38:20.965Z,62.18
2018-09-25T09:39:31.099Z,61.9
2018-09-25T09:40:40.681Z,62.85
2018-09-25T09:41:51.506Z,62.85
2018-09-25T09:43:01.869Z,62.18
2018-09-25T09:44:11.727Z,62.65
2018-09-25T09:45:21.412Z,61.7
2018-09-25T09:46:30.995Z,61.51
2018-09-25T09:47:40.580Z,61.7
2018-09-25T09:48:49.622Z,61.8
2018-09-25T09:49:59.490Z,61.8
2018-09-25T09:51:09.370Z,61.8
2018-09-25T09:52:19.512Z,61.8
2018-09-25T09:53:29.644Z,61.9
2018-09-25T09:54:39.237Z,61.7
2018-09-25T09:55:48.548Z,61.99
2018-09-25T09:56:58.682Z,62.08
2018-09-25T09:58:08.541Z,61.42
2018-09-25T09:59:18.674Z,61.61
2018-09-25T10:00:28.264Z,61.22
2018-09-25T10:01:38.405Z,61.42
2018-09-25T10:02:48.541Z,61.51
2018-09-25T10:03:58.405Z,61.9
2018-09-25T10:05:08.547Z,62.46
2018-09-25T10:06:18.409Z,62.94
2018-09-25T10:07:28.562Z,63.99
2018-09-25T10:08:38.428Z,63.8
2018-09-25T10:09:48.571Z,62.94
2018-09-25T10:10:58.710Z,63.04
2018-09-25T10:12:08.292Z,62.94
2018-09-25T10:13:18.484Z,62.94
2018-09-25T10:14:28.341Z,62.85
2018-09-25T10:15:38.209Z,63.89
2018-09-25T10:16:47.816Z,62.37
2018-09-25T10:17:57.671Z,62.46
2018-09-25T10:19:06.707Z,62.56
2018-09-25T10:20:16.894Z,63.51
2018-09-25T10:21:27.398Z,62.85
2018-09-25T10:22:37.004Z,62.94
2018-09-25T10:23:46.908Z,62.4
2018-09-25T10:24:56.766Z,62.68
2018-09-25T10:26:06.650Z,62.88
2018-09-25T10:27:16.921Z,62.78
2018-09-25T10:28:27.496Z,62.88
2018-09-25T10:29:37.628Z,62.4
2018-09-25T10:30:47.211Z,61.83
2018-09-25T10:31:57.345Z,62.59
2018-09-25T10:33:06.960Z,61.45
2018-09-25T10:34:17.369Z,61.64
2018-09-25T10:35:27.647Z,61.19
2018-09-25T10:36:37.506Z,61.48
2018-09-25T10:37:47.091Z,60.62
2018-09-25T10:38:57.234Z,60.88
2018-09-25T10:40:06.819Z,60.43
2018-09-25T10:41:16.689Z,61.86
2018-09-25T10:42:26.547Z,61.76
2018-09-25T10:43:36.134Z,61.57
2018-09-25T10:44:45.998Z,61.96
2018-09-25T10:45:55.313Z,59.86
2018-09-25T10:47:05.177Z,60.62
2018-09-25T10:48:15.042Z,59.76
2018-09-25T10:49:24.734Z,59.86
2018-09-25T10:50:34.595Z,60.72
2018-09-25T10:51:44.730Z,60.33
2018-09-25T10:52:54.316Z,60.91
2018-09-25T10:54:04.176Z,59.86
2018-09-25T10:55:13.762Z,59.86
2018-09-25T10:56:23.817Z,60.72
2018-09-25T10:57:33.691Z,59.79
2018-09-25T10:58:43.558Z,59.12
2018-09-25T10:59:53.427Z,59.22
2018-09-25T11:01:03.297Z,58.46
2018-09-25T11:02:13.433Z,58.58
2018-09-25T11:03:23.426Z,58.07
2018-09-25T11:05:49.731Z,57.15
2018-09-25T11:08:16.036Z,57.15
2018-09-25T11:09:25.896Z,57.53
2018-09-25T11:10:36.036Z,57.53
2018-09-25T11:11:47.376Z,57.82
2018-09-25T11:12:57.234Z,57.46
2018-09-25T11:14:07.109Z,56.41
2018-09-25T11:15:16.971Z,56.04
2018-09-25T11:16:27.110Z,56.89
2018-09-25T11:17:36.722Z,57.65
2018-09-25T11:18:46.790Z,56.16
2018-09-25T11:19:56.926Z,56.16
2018-09-25T11:21:06.803Z,55.87
2018-09-25T11:22:16.944Z,55.2
2018-09-25T11:23:27.077Z,54.25
2018-09-25T11:24:36.674Z,55.2
2018-09-25T11:25:46.549Z,55.96
2018-09-25T11:26:56.687Z,55.01
2018-09-25T11:28:06.547Z,54.91
2018-09-25T11:29:16.684Z,56.41
2018-09-25T11:30:26.818Z,55.94
2018-09-25T11:31:36.405Z,55.18
2018-09-25T11:32:46.267Z,56.32
2018-09-25T11:33:56.410Z,55.75
2018-09-25T11:35:06.576Z,56.23
2018-09-25T11:36:16.977Z,57.28
2018-09-25T11:37:26.837Z,57.28
2018-09-25T11:38:36.700Z,57.37
2018-09-25T11:39:46.565Z,55.36
2018-09-25T11:40:56.881Z,56.32
2018-09-25T11:42:06.985Z,57.56
2018-09-25T11:43:16.576Z,57.65
2018-09-25T11:44:26.718Z,56.99
2018-09-25T11:45:36.866Z,57.09
2018-09-25T11:46:46.767Z,57.18
2018-09-25T11:47:57.606Z,57.85
2018-09-25T11:49:07.747Z,57.09
2018-09-25T11:50:17.891Z,57.63
2018-09-25T11:51:28.025Z,58.01
2018-09-25T11:52:37.887Z,59.25
2018-09-25T11:53:47.864Z,58.2
2018-09-25T11:54:58.007Z,58.68
2018-09-25T11:56:08.166Z,58.01
2018-09-25T11:57:18.383Z,58.68
2018-09-25T11:58:28.577Z,59.34
2018-09-25T11:59:39.169Z,58.97
2018-09-25T12:00:49.309Z,59.25
2018-09-25T12:01:59.451Z,59.25
2018-09-25T12:03:09.389Z,59.16
2018-09-25T12:04:19.255Z,59.44
2018-09-25T12:05:29.232Z,59.82
2018-09-25T12:06:38.268Z,59.16
2018-09-25T12:07:48.132Z,58.77
2018-09-25T12:08:57.720Z,59.44
2018-09-25T12:10:07.305Z,59.22
2018-09-25T12:11:17.365Z,58.75
2018-09-25T12:12:26.958Z,58.94
2018-09-25T12:13:37.201Z,59.99
2018-09-25T12:14:47.596Z,60.36
2018-09-25T12:15:57.184Z,60.46
2018-09-25T12:17:07.424Z,60.17
2018-09-25T12:18:17.297Z,60.36
2018-09-25T12:19:27.430Z,59.99
2018-09-25T12:20:37.287Z,60.27
2018-09-25T12:21:47.224Z,59.99
2018-09-25T12:22:57.410Z,60.65
2018-09-25T12:24:07.273Z,60.94
2018-09-25T12:25:16.862Z,61.22
2018-09-25T12:26:27.006Z,60.75
2018-09-25T12:27:36.593Z,60.75
2018-09-25T12:28:46.555Z,61.6
2018-09-25T12:29:56.427Z,61.6
2018-09-25T12:31:06.010Z,61.8
2018-09-25T12:32:15.876Z,59.6
2018-09-25T12:33:25.735Z,60.43
2018-09-25T12:34:35.366Z,60.52
2018-09-25T12:35:45.498Z,60.52
2018-09-25T12:36:55.359Z,61.76
2018-09-25T12:38:04.943Z,61.76
2018-09-25T12:39:14.804Z,61.38
2018-09-25T12:40:25.048Z,61.48
2018-09-25T12:41:34.635Z,61.57
2018-09-25T12:42:44.500Z,61.1
2018-09-25T12:43:54.363Z,60.62
2018-09-25T12:45:03.951Z,60.62
2018-09-25T12:46:13.600Z,60.81
2018-09-25T12:47:23.465Z,60.62
2018-09-25T12:48:33.323Z,61.38
2018-09-25T12:49:43.460Z,61.57
2018-09-25T12:50:53.590Z,61.67
2018-09-25T12:52:03.775Z,61.76
2018-09-25T12:53:13.631Z,61.76
2018-09-25T12:54:23.494Z,61.96
2018-09-25T12:55:33.639Z,62.62
2018-09-25T12:56:43.500Z,61.96
2018-09-25T12:57:53.136Z,61.86
2018-09-25T12:59:03.271Z,62.43
2018-09-25T13:00:13.407Z,62.15
2018-09-25T13:01:23.263Z,62.43
2018-09-25T13:02:33.137Z,62.81
2018-09-25T13:03:43.049Z,62.43
2018-09-25T13:04:52.699Z,62.91
2018-09-25T13:06:02.837Z,62.52
2018-09-25T13:07:12.425Z,63.57
2018-09-25T13:08:22.564Z,62.91
2018-09-25T13:09:32.907Z,63
2018-09-25T13:10:42.566Z,63
2018-09-25T13:11:52.425Z,63.1
2018-09-25T13:13:02.286Z,62.81
2018-09-25T13:14:11.876Z,63.96
2018-09-25T13:15:22.066Z,64.24
2018-09-25T13:16:32.200Z,64.34
2018-09-25T13:17:42.077Z,64.34
2018-09-25T13:18:51.939Z,64.24
2018-09-25T13:20:01.526Z,64.15
2018-09-25T13:21:11.269Z,63.76
2018-09-25T13:22:21.403Z,64.15
2018-09-25T13:23:31.544Z,64.05
2018-09-25T13:24:41.718Z,63.57
2018-09-25T13:25:51.850Z,64.24
2018-09-25T13:27:01.809Z,64.24
2018-09-25T13:28:11.117Z,63.67
2018-09-25T13:29:20.978Z,63.67
2018-09-25T13:30:31.115Z,64.15
2018-09-25T13:31:40.978Z,64.05
2018-09-25T13:32:50.834Z,63.76
2018-09-25T13:34:00.973Z,63.76
2018-09-25T13:35:11.119Z,64.24
2018-09-25T13:36:21.250Z,63.76
2018-09-25T13:37:31.124Z,63.57
2018-09-25T13:38:40.735Z,63.96
2018-09-25T13:39:50.635Z,63.67
2018-09-25T13:41:00.221Z,64.43
2018-09-25T13:42:09.804Z,64.53
2018-09-25T13:43:19.670Z,63.86
2018-09-25T13:44:29.585Z,63.86
2018-09-25T13:45:39.506Z,63.57
2018-09-25T13:46:49.654Z,64.15
2018-09-25T13:47:59.515Z,63.86
2018-09-25T13:49:09.376Z,63.96
2018-09-25T13:50:19.235Z,64.24
2018-09-25T13:51:29.366Z,63.76
2018-09-25T13:52:38.675Z,64.05
2018-09-25T13:53:48.257Z,64.24
2018-09-25T13:54:57.840Z,63.96
2018-09-25T13:56:08.126Z,64.72
2018-09-25T13:57:18.596Z,64.24
2018-09-25T13:58:28.736Z,64.81
2018-09-25T13:59:38.876Z,64.53
2018-09-25T14:00:49.014Z,64.72
2018-09-25T14:01:59.150Z,64.72
2018-09-25T14:03:09.289Z,65
2018-09-25T14:04:18.606Z,64.43
2018-09-25T14:05:28.475Z,64.43
2018-09-25T14:06:38.616Z,65
2018-09-25T14:07:48.744Z,65
2018-09-25T14:08:58.054Z,64.72
2018-09-25T14:10:07.911Z,64.91
2018-09-25T14:11:18.046Z,64.53
2018-09-25T14:12:27.630Z,65.1
2018-09-25T14:13:37.491Z,65.29
2018-09-25T14:14:47.625Z,64.91
2018-09-25T14:15:57.763Z,65
2018-09-25T14:17:07.901Z,65.48
2018-09-25T14:18:18.049Z,65.77
2018-09-25T14:19:28.250Z,65.48
2018-09-25T14:20:38.384Z,65.39
2018-09-25T14:21:48.520Z,65.1
2018-09-25T14:22:58.776Z,64.78
2018-09-25T14:24:08.912Z,64.81
2018-09-25T14:25:18.818Z,64.91
2018-09-25T14:26:28.676Z,64.91
2018-09-25T14:27:38.542Z,64.81
2018-09-25T14:28:48.612Z,65.48
2018-09-25T14:29:58.479Z,64.72
2018-09-25T14:31:08.391Z,64.72
2018-09-25T14:32:18.525Z,64.81
2018-09-25T14:33:28.672Z,65
2018-09-25T14:34:38.654Z,65
2018-09-25T14:35:48.962Z,65.1
2018-09-25T14:36:58.651Z,65.1
2018-09-25T14:38:08.789Z,65.67
2018-09-25T14:39:18.936Z,64.81
2018-09-25T14:40:28.817Z,64.72
2018-09-25T14:41:38.950Z,65
2018-09-25T14:42:48.926Z,65.29
2018-09-25T14:43:59.064Z,65.2
2018-09-25T14:45:08.931Z,65.29
2018-09-25T14:46:18.803Z,65.29
2018-09-25T14:47:28.935Z,65.39
2018-09-25T14:48:39.089Z,65.48
2018-09-25T14:49:49.427Z,65.48
2018-09-25T14:50:59.568Z,65.29
2018-09-25T14:52:09.153Z,65
2018-09-25T14:53:18.738Z,65.77
2018-09-25T14:54:29.060Z,65.1
2018-09-25T14:55:39.192Z,66.05
2018-09-25T14:56:49.051Z,66.53
2018-09-25T14:57:59.230Z,66.72
2018-09-25T14:59:09.369Z,66.24
2018-09-25T15:00:19.608Z,65.29
2018-09-25T15:01:29.189Z,66.15
2018-09-25T15:02:39.050Z,65.86
2018-09-25T15:03:49.181Z,65.29
2018-09-25T15:04:59.322Z,66.05
2018-09-25T15:06:08.569Z,66.34
2018-09-25T15:07:18.776Z,66.05
2018-09-25T15:08:28.746Z,66.15
2018-09-25T15:09:37.780Z,66.24